sensor_id;sensor_type;location;lat;lon;timestamp;temperature;humidity
4312;DHT22;2169;49.086;9.284;2022-10-16T00:01:27;16.90;79.20
4312;DHT22;2169;49.086;9.284;2022-10-16T00:03:54;16.80;79.10
4312;DHT22;2169;49.086;9.284;2022-10-16T00:06:22;16.80;79.10
4312;DHT22;2169;49.086;9.284;2022-10-16T00:08:49;16.80;79.10
4312;DHT22;2169;49.086;9.284;2022-10-16T00:11:19;16.80;79.20
4312;DHT22;2169;49.086;9.284;2022-10-16T00:13:49;16.80;79.20
4312;DHT22;2169;49.086;9.284;2022-10-16T00:16:16;16.80;79.30
4312;DHT22;2169;49.086;9.284;2022-10-16T00:18:43;16.80;79.30
4312;DHT22;2169;49.086;9.284;2022-10-16T00:21:13;16.80;79.40
4312;DHT22;2169;49.086;9.284;2022-10-16T00:23:40;16.80;79.40
4312;DHT22;2169;49.086;9.284;2022-10-16T00:26:09;16.80;79.40
4312;DHT22;2169;49.086;9.284;2022-10-16T00:28:36;16.80;80.10
4312;DHT22;2169;49.086;9.284;2022-10-16T00:31:06;16.80;79.50
4312;DHT22;2169;49.086;9.284;2022-10-16T00:33:34;16.80;79.40
4312;DHT22;2169;49.086;9.284;2022-10-16T00:36:02;16.80;79.50
4312;DHT22;2169;49.086;9.284;2022-10-16T00:38:29;16.80;79.50
4312;DHT22;2169;49.086;9.284;2022-10-16T00:40:56;16.80;79.50
4312;DHT22;2169;49.086;9.284;2022-10-16T00:43:38;16.80;79.50
4312;DHT22;2169;49.086;9.284;2022-10-16T00:46:13;16.80;79.70
4312;DHT22;2169;49.086;9.284;2022-10-16T00:48:43;16.80;79.70
4312;DHT22;2169;49.086;9.284;2022-10-16T00:51:11;16.80;79.70
4312;DHT22;2169;49.086;9.284;2022-10-16T00:53:38;16.80;79.70
4312;DHT22;2169;49.086;9.284;2022-10-16T00:56:06;16.80;79.70
4312;DHT22;2169;49.086;9.284;2022-10-16T00:58:32;16.80;79.70
4312;DHT22;2169;49.086;9.284;2022-10-16T01:00:59;16.80;79.70
4312;DHT22;2169;49.086;9.284;2022-10-16T01:03:29;16.80;79.70
4312;DHT22;2169;49.086;9.284;2022-10-16T01:06:07;16.80;79.80
4312;DHT22;2169;49.086;9.284;2022-10-16T01:08:46;16.80;79.80
4312;DHT22;2169;49.086;9.284;2022-10-16T01:11:20;16.80;79.90
4312;DHT22;2169;49.086;9.284;2022-10-16T01:13:52;16.80;79.90
4312;DHT22;2169;49.086;9.284;2022-10-16T01:16:28;16.80;79.90
4312;DHT22;2169;49.086;9.284;2022-10-16T01:19:02;16.80;79.90
4312;DHT22;2169;49.086;9.284;2022-10-16T01:21:34;16.80;80.00
4312;DHT22;2169;49.086;9.284;2022-10-16T01:24:06;16.80;80.00
4312;DHT22;2169;49.086;9.284;2022-10-16T01:29:36;16.80;80.00
4312;DHT22;2169;49.086;9.284;2022-10-16T01:32:10;16.80;80.10
4312;DHT22;2169;49.086;9.284;2022-10-16T01:34:47;16.80;80.10
4312;DHT22;2169;49.086;9.284;2022-10-16T01:37:18;16.70;80.10
4312;DHT22;2169;49.086;9.284;2022-10-16T01:39:49;16.70;80.10
4312;DHT22;2169;49.086;9.284;2022-10-16T01:42:20;16.70;80.00
4312;DHT22;2169;49.086;9.284;2022-10-16T01:44:50;16.80;80.10
4312;DHT22;2169;49.086;9.284;2022-10-16T01:47:21;16.80;80.10
4312;DHT22;2169;49.086;9.284;2022-10-16T01:49:49;16.80;80.10
4312;DHT22;2169;49.086;9.284;2022-10-16T01:52:20;16.80;80.10
4312;DHT22;2169;49.086;9.284;2022-10-16T01:54:49;16.80;80.10
4312;DHT22;2169;49.086;9.284;2022-10-16T01:57:18;16.80;80.00
4312;DHT22;2169;49.086;9.284;2022-10-16T01:59:49;16.80;80.00
4312;DHT22;2169;49.086;9.284;2022-10-16T02:02:19;16.80;80.00
4312;DHT22;2169;49.086;9.284;2022-10-16T02:04:49;16.80;80.00
4312;DHT22;2169;49.086;9.284;2022-10-16T02:07:18;16.80;79.90
4312;DHT22;2169;49.086;9.284;2022-10-16T02:09:45;16.80;79.90
4312;DHT22;2169;49.086;9.284;2022-10-16T02:12:15;16.80;79.90
4312;DHT22;2169;49.086;9.284;2022-10-16T02:14:42;16.80;80.00
4312;DHT22;2169;49.086;9.284;2022-10-16T02:17:13;16.80;79.90
4312;DHT22;2169;49.086;9.284;2022-10-16T02:19:41;16.80;80.00
4312;DHT22;2169;49.086;9.284;2022-10-16T02:22:12;16.80;80.00
4312;DHT22;2169;49.086;9.284;2022-10-16T02:24:50;16.80;80.10
4312;DHT22;2169;49.086;9.284;2022-10-16T02:27:19;16.80;80.10
4312;DHT22;2169;49.086;9.284;2022-10-16T02:29:53;16.80;80.10
4312;DHT22;2169;49.086;9.284;2022-10-16T02:32:28;16.80;80.10
4312;DHT22;2169;49.086;9.284;2022-10-16T02:34:58;16.80;80.10
4312;DHT22;2169;49.086;9.284;2022-10-16T02:37:26;16.80;80.10
4312;DHT22;2169;49.086;9.284;2022-10-16T02:39:55;16.80;80.20
4312;DHT22;2169;49.086;9.284;2022-10-16T02:42:28;16.80;80.20
4312;DHT22;2169;49.086;9.284;2022-10-16T02:44:55;16.80;80.20
4312;DHT22;2169;49.086;9.284;2022-10-16T02:47:22;16.80;80.20
4312;DHT22;2169;49.086;9.284;2022-10-16T02:49:50;16.80;80.20
4312;DHT22;2169;49.086;9.284;2022-10-16T02:52:16;16.80;80.20
4312;DHT22;2169;49.086;9.284;2022-10-16T02:54:43;16.80;80.30
4312;DHT22;2169;49.086;9.284;2022-10-16T02:57:10;16.80;80.30
4312;DHT22;2169;49.086;9.284;2022-10-16T02:59:37;16.80;80.30
4312;DHT22;2169;49.086;9.284;2022-10-16T03:02:04;16.80;80.30
4312;DHT22;2169;49.086;9.284;2022-10-16T03:04:30;16.80;80.30
4312;DHT22;2169;49.086;9.284;2022-10-16T03:06:58;16.80;80.30
4312;DHT22;2169;49.086;9.284;2022-10-16T03:09:25;16.80;80.40
4312;DHT22;2169;49.086;9.284;2022-10-16T03:11:52;16.80;80.40
4312;DHT22;2169;49.086;9.284;2022-10-16T03:14:19;16.80;80.40
4312;DHT22;2169;49.086;9.284;2022-10-16T03:16:45;16.80;80.40
4312;DHT22;2169;49.086;9.284;2022-10-16T03:19:12;16.80;80.40
4312;DHT22;2169;49.086;9.284;2022-10-16T03:21:39;16.80;80.40
4312;DHT22;2169;49.086;9.284;2022-10-16T03:24:07;16.80;80.40
4312;DHT22;2169;49.086;9.284;2022-10-16T03:26:34;16.80;80.50
4312;DHT22;2169;49.086;9.284;2022-10-16T03:29:01;16.80;80.40
4312;DHT22;2169;49.086;9.284;2022-10-16T03:31:29;16.80;80.50
4312;DHT22;2169;49.086;9.284;2022-10-16T03:33:55;16.80;80.50
4312;DHT22;2169;49.086;9.284;2022-10-16T03:36:22;16.80;80.50
4312;DHT22;2169;49.086;9.284;2022-10-16T03:38:49;16.80;80.50
4312;DHT22;2169;49.086;9.284;2022-10-16T03:41:17;16.80;80.50
4312;DHT22;2169;49.086;9.284;2022-10-16T03:43:44;16.80;80.50
4312;DHT22;2169;49.086;9.284;2022-10-16T03:46:11;16.80;80.50
4312;DHT22;2169;49.086;9.284;2022-10-16T03:48:38;16.80;80.50
4312;DHT22;2169;49.086;9.284;2022-10-16T03:51:05;16.80;80.50
4312;DHT22;2169;49.086;9.284;2022-10-16T03:53:32;16.80;80.50
4312;DHT22;2169;49.086;9.284;2022-10-16T03:55:59;16.80;80.50
4312;DHT22;2169;49.086;9.284;2022-10-16T03:58:27;16.70;80.40
4312;DHT22;2169;49.086;9.284;2022-10-16T04:00:54;16.70;80.40
4312;DHT22;2169;49.086;9.284;2022-10-16T04:03:21;16.70;80.30
4312;DHT22;2169;49.086;9.284;2022-10-16T04:05:48;16.70;80.40
4312;DHT22;2169;49.086;9.284;2022-10-16T04:08:15;16.70;80.40
4312;DHT22;2169;49.086;9.284;2022-10-16T04:10:42;16.70;80.40
4312;DHT22;2169;49.086;9.284;2022-10-16T04:13:09;16.70;80.40
4312;DHT22;2169;49.086;9.284;2022-10-16T04:15:37;16.70;80.40
4312;DHT22;2169;49.086;9.284;2022-10-16T04:18:04;16.70;80.40
4312;DHT22;2169;49.086;9.284;2022-10-16T04:20:31;16.70;80.40
4312;DHT22;2169;49.086;9.284;2022-10-16T04:22:58;16.60;80.30
4312;DHT22;2169;49.086;9.284;2022-10-16T04:25:25;16.60;80.30
4312;DHT22;2169;49.086;9.284;2022-10-16T04:27:52;16.60;80.30
4312;DHT22;2169;49.086;9.284;2022-10-16T04:30:20;16.60;80.30
4312;DHT22;2169;49.086;9.284;2022-10-16T04:32:49;16.60;80.30
4312;DHT22;2169;49.086;9.284;2022-10-16T04:35:17;16.60;80.30
4312;DHT22;2169;49.086;9.284;2022-10-16T04:37:44;16.50;80.20
4312;DHT22;2169;49.086;9.284;2022-10-16T04:40:11;16.60;80.30
4312;DHT22;2169;49.086;9.284;2022-10-16T04:42:38;16.50;80.20
4312;DHT22;2169;49.086;9.284;2022-10-16T04:45:06;16.50;80.20
4312;DHT22;2169;49.086;9.284;2022-10-16T04:47:33;16.50;80.30
4312;DHT22;2169;49.086;9.284;2022-10-16T04:50:01;16.50;80.30
4312;DHT22;2169;49.086;9.284;2022-10-16T04:52:28;16.50;80.30
4312;DHT22;2169;49.086;9.284;2022-10-16T04:54:57;16.50;80.30
4312;DHT22;2169;49.086;9.284;2022-10-16T04:57:26;16.50;80.30
4312;DHT22;2169;49.086;9.284;2022-10-16T04:59:53;16.50;80.30
4312;DHT22;2169;49.086;9.284;2022-10-16T05:02:20;16.50;80.30
4312;DHT22;2169;49.086;9.284;2022-10-16T05:04:47;16.50;80.40
4312;DHT22;2169;49.086;9.284;2022-10-16T05:07:15;16.40;80.30
4312;DHT22;2169;49.086;9.284;2022-10-16T05:09:42;16.40;80.30
4312;DHT22;2169;49.086;9.284;2022-10-16T05:12:08;16.40;80.30
4312;DHT22;2169;49.086;9.284;2022-10-16T05:14:35;16.40;80.30
4312;DHT22;2169;49.086;9.284;2022-10-16T05:17:02;16.40;80.30
4312;DHT22;2169;49.086;9.284;2022-10-16T05:19:29;16.40;80.40
4312;DHT22;2169;49.086;9.284;2022-10-16T05:21:55;16.40;80.40
4312;DHT22;2169;49.086;9.284;2022-10-16T05:24:24;16.40;80.40
4312;DHT22;2169;49.086;9.284;2022-10-16T05:26:51;16.40;80.40
4312;DHT22;2169;49.086;9.284;2022-10-16T05:29:17;16.40;80.40
4312;DHT22;2169;49.086;9.284;2022-10-16T05:31:44;16.40;80.40
4312;DHT22;2169;49.086;9.284;2022-10-16T05:34:11;16.40;80.40
4312;DHT22;2169;49.086;9.284;2022-10-16T05:36:38;16.40;80.40
4312;DHT22;2169;49.086;9.284;2022-10-16T05:39:04;16.40;80.40
4312;DHT22;2169;49.086;9.284;2022-10-16T05:41:33;16.40;80.50
4312;DHT22;2169;49.086;9.284;2022-10-16T05:44:00;16.40;80.50
4312;DHT22;2169;49.086;9.284;2022-10-16T05:46:29;16.40;80.50
4312;DHT22;2169;49.086;9.284;2022-10-16T05:48:56;16.30;80.50
4312;DHT22;2169;49.086;9.284;2022-10-16T05:51:23;16.30;81.20
4312;DHT22;2169;49.086;9.284;2022-10-16T05:53:50;16.30;80.60
4312;DHT22;2169;49.086;9.284;2022-10-16T05:56:16;16.30;80.50
4312;DHT22;2169;49.086;9.284;2022-10-16T05:58:44;16.30;80.60
4312;DHT22;2169;49.086;9.284;2022-10-16T06:01:13;16.30;81.30
4312;DHT22;2169;49.086;9.284;2022-10-16T06:03:41;16.30;80.70
4312;DHT22;2169;49.086;9.284;2022-10-16T06:06:08;16.30;80.70
4312;DHT22;2169;49.086;9.284;2022-10-16T06:08:35;16.30;80.70
4312;DHT22;2169;49.086;9.284;2022-10-16T06:11:03;16.30;80.70
4312;DHT22;2169;49.086;9.284;2022-10-16T06:13:30;16.30;80.70
4312;DHT22;2169;49.086;9.284;2022-10-16T06:15:59;16.30;80.80
4312;DHT22;2169;49.086;9.284;2022-10-16T06:18:27;16.30;80.80
4312;DHT22;2169;49.086;9.284;2022-10-16T06:20:54;16.30;80.90
4312;DHT22;2169;49.086;9.284;2022-10-16T06:23:21;16.30;80.90
4312;DHT22;2169;49.086;9.284;2022-10-16T06:25:48;16.30;80.90
4312;DHT22;2169;49.086;9.284;2022-10-16T06:28:15;16.30;81.00
4312;DHT22;2169;49.086;9.284;2022-10-16T06:30:42;16.30;80.90
4312;DHT22;2169;49.086;9.284;2022-10-16T06:33:11;16.30;81.00
4312;DHT22;2169;49.086;9.284;2022-10-16T06:35:37;16.30;81.00
4312;DHT22;2169;49.086;9.284;2022-10-16T06:38:04;16.30;81.10
4312;DHT22;2169;49.086;9.284;2022-10-16T06:40:31;16.30;81.10
4312;DHT22;2169;49.086;9.284;2022-10-16T06:42:58;16.30;81.10
4312;DHT22;2169;49.086;9.284;2022-10-16T06:45:24;16.30;81.10
4312;DHT22;2169;49.086;9.284;2022-10-16T06:47:51;16.40;81.30
4312;DHT22;2169;49.086;9.284;2022-10-16T06:50:19;16.40;81.30
4312;DHT22;2169;49.086;9.284;2022-10-16T06:52:46;16.40;81.30
4312;DHT22;2169;49.086;9.284;2022-10-16T06:55:13;16.40;81.40
4312;DHT22;2169;49.086;9.284;2022-10-16T06:57:40;16.40;81.40
4312;DHT22;2169;49.086;9.284;2022-10-16T07:00:07;16.40;81.50
4312;DHT22;2169;49.086;9.284;2022-10-16T07:02:34;16.40;81.60
4312;DHT22;2169;49.086;9.284;2022-10-16T07:05:01;16.40;81.60
4312;DHT22;2169;49.086;9.284;2022-10-16T07:07:29;16.40;81.60
4312;DHT22;2169;49.086;9.284;2022-10-16T07:09:56;16.50;81.80
4312;DHT22;2169;49.086;9.284;2022-10-16T07:12:23;16.50;81.80
4312;DHT22;2169;49.086;9.284;2022-10-16T07:14:49;16.50;81.90
4312;DHT22;2169;49.086;9.284;2022-10-16T07:17:19;16.50;81.90
4312;DHT22;2169;49.086;9.284;2022-10-16T07:19:46;16.50;82.00
4312;DHT22;2169;49.086;9.284;2022-10-16T07:22:12;16.50;82.00
4312;DHT22;2169;49.086;9.284;2022-10-16T07:24:41;16.60;82.20
4312;DHT22;2169;49.086;9.284;2022-10-16T07:27:09;16.60;82.20
4312;DHT22;2169;49.086;9.284;2022-10-16T07:29:35;16.60;82.30
4312;DHT22;2169;49.086;9.284;2022-10-16T07:32:02;16.60;82.30
4312;DHT22;2169;49.086;9.284;2022-10-16T07:34:29;16.70;82.40
4312;DHT22;2169;49.086;9.284;2022-10-16T07:36:56;16.70;82.40
4312;DHT22;2169;49.086;9.284;2022-10-16T07:39:23;16.80;82.40
4312;DHT22;2169;49.086;9.284;2022-10-16T07:41:51;16.80;82.40
4312;DHT22;2169;49.086;9.284;2022-10-16T07:44:18;16.80;82.40
4312;DHT22;2169;49.086;9.284;2022-10-16T07:46:44;16.80;82.20
4312;DHT22;2169;49.086;9.284;2022-10-16T07:49:11;16.90;82.30
4312;DHT22;2169;49.086;9.284;2022-10-16T07:51:38;16.90;82.20
4312;DHT22;2169;49.086;9.284;2022-10-16T07:54:05;16.90;82.10
4312;DHT22;2169;49.086;9.284;2022-10-16T07:56:32;16.90;82.00
4312;DHT22;2169;49.086;9.284;2022-10-16T07:59:00;17.00;82.00
4312;DHT22;2169;49.086;9.284;2022-10-16T08:01:27;17.00;81.90
4312;DHT22;2169;49.086;9.284;2022-10-16T08:03:54;17.00;81.80
4312;DHT22;2169;49.086;9.284;2022-10-16T08:06:21;17.10;81.80
4312;DHT22;2169;49.086;9.284;2022-10-16T08:08:48;17.10;81.70
4312;DHT22;2169;49.086;9.284;2022-10-16T08:11:15;17.10;81.60
4312;DHT22;2169;49.086;9.284;2022-10-16T08:13:42;17.10;81.40
4312;DHT22;2169;49.086;9.284;2022-10-16T08:16:10;17.20;81.40
4312;DHT22;2169;49.086;9.284;2022-10-16T08:18:39;17.20;81.20
4312;DHT22;2169;49.086;9.284;2022-10-16T08:21:07;17.20;81.10
4312;DHT22;2169;49.086;9.284;2022-10-16T08:23:34;17.30;81.20
4312;DHT22;2169;49.086;9.284;2022-10-16T08:26:06;17.30;81.20
4312;DHT22;2169;49.086;9.284;2022-10-16T08:28:33;17.40;81.20
4312;DHT22;2169;49.086;9.284;2022-10-16T08:31:08;17.40;81.10
4312;DHT22;2169;49.086;9.284;2022-10-16T08:33:36;17.50;81.00
4312;DHT22;2169;49.086;9.284;2022-10-16T08:36:09;17.50;80.90
4312;DHT22;2169;49.086;9.284;2022-10-16T08:38:35;17.60;80.80
4312;DHT22;2169;49.086;9.284;2022-10-16T08:41:17;17.70;80.80
4312;DHT22;2169;49.086;9.284;2022-10-16T08:44:00;17.80;80.70
4312;DHT22;2169;49.086;9.284;2022-10-16T08:46:36;17.80;80.50
4312;DHT22;2169;49.086;9.284;2022-10-16T08:49:11;17.90;80.50
4312;DHT22;2169;49.086;9.284;2022-10-16T08:51:39;18.00;80.40
4312;DHT22;2169;49.086;9.284;2022-10-16T08:54:15;18.10;80.40
4312;DHT22;2169;49.086;9.284;2022-10-16T08:56:45;18.20;80.20
4312;DHT22;2169;49.086;9.284;2022-10-16T08:59:20;18.20;80.10
4312;DHT22;2169;49.086;9.284;2022-10-16T09:01:50;18.30;79.90
4312;DHT22;2169;49.086;9.284;2022-10-16T09:04:45;18.40;79.80
4312;DHT22;2169;49.086;9.284;2022-10-16T09:07:20;18.50;79.60
4312;DHT22;2169;49.086;9.284;2022-10-16T09:13:23;18.60;79.20
4312;DHT22;2169;49.086;9.284;2022-10-16T09:15:59;18.60;79.00
4312;DHT22;2169;49.086;9.284;2022-10-16T09:18:33;18.70;78.80
4312;DHT22;2169;49.086;9.284;2022-10-16T09:21:09;18.70;78.60
4312;DHT22;2169;49.086;9.284;2022-10-16T09:23:39;18.80;78.30
4312;DHT22;2169;49.086;9.284;2022-10-16T09:28:37;18.90;78.00
4312;DHT22;2169;49.086;9.284;2022-10-16T09:31:03;19.00;77.80
4312;DHT22;2169;49.086;9.284;2022-10-16T09:33:33;19.00;77.60
4312;DHT22;2169;49.086;9.284;2022-10-16T09:36:03;19.10;77.40
4312;DHT22;2169;49.086;9.284;2022-10-16T09:38:34;19.10;77.30
4312;DHT22;2169;49.086;9.284;2022-10-16T09:41:03;19.10;77.10
4312;DHT22;2169;49.086;9.284;2022-10-16T09:43:41;19.20;77.00
4312;DHT22;2169;49.086;9.284;2022-10-16T09:46:27;19.20;76.70
4312;DHT22;2169;49.086;9.284;2022-10-16T09:48:56;19.30;76.60
4312;DHT22;2169;49.086;9.284;2022-10-16T09:51:25;19.30;76.30
4312;DHT22;2169;49.086;9.284;2022-10-16T09:53:58;19.40;76.20
4312;DHT22;2169;49.086;9.284;2022-10-16T09:56:26;19.50;76.10
4312;DHT22;2169;49.086;9.284;2022-10-16T09:58:54;19.50;75.90
4312;DHT22;2169;49.086;9.284;2022-10-16T10:01:24;19.60;75.90
4312;DHT22;2169;49.086;9.284;2022-10-16T10:03:56;19.70;75.60
4312;DHT22;2169;49.086;9.284;2022-10-16T10:06:29;19.80;75.40
4312;DHT22;2169;49.086;9.284;2022-10-16T10:09:15;19.90;75.30
4312;DHT22;2169;49.086;9.284;2022-10-16T10:11:46;20.00;75.20
4312;DHT22;2169;49.086;9.284;2022-10-16T10:14:22;20.10;75.00
4312;DHT22;2169;49.086;9.284;2022-10-16T10:16:50;20.20;74.80
4312;DHT22;2169;49.086;9.284;2022-10-16T10:19:19;20.30;74.70
4312;DHT22;2169;49.086;9.284;2022-10-16T10:21:47;20.40;74.50
4312;DHT22;2169;49.086;9.284;2022-10-16T10:24:17;20.50;74.50
4312;DHT22;2169;49.086;9.284;2022-10-16T10:26:50;20.60;74.10
4312;DHT22;2169;49.086;9.284;2022-10-16T10:29:42;20.70;73.90
4312;DHT22;2169;49.086;9.284;2022-10-16T10:32:22;20.90;73.60
4312;DHT22;2169;49.086;9.284;2022-10-16T10:35:07;20.90;73.10
4312;DHT22;2169;49.086;9.284;2022-10-16T10:37:47;21.00;72.70
4312;DHT22;2169;49.086;9.284;2022-10-16T10:40:28;21.10;72.70
4312;DHT22;2169;49.086;9.284;2022-10-16T10:43:00;21.20;72.20
4312;DHT22;2169;49.086;9.284;2022-10-16T10:45:37;21.30;72.10
4312;DHT22;2169;49.086;9.284;2022-10-16T10:48:20;21.30;71.70
4312;DHT22;2169;49.086;9.284;2022-10-16T10:50:50;21.40;71.40
4312;DHT22;2169;49.086;9.284;2022-10-16T10:53:26;21.50;71.40
4312;DHT22;2169;49.086;9.284;2022-10-16T10:56:04;21.50;71.20
4312;DHT22;2169;49.086;9.284;2022-10-16T10:58:54;21.60;71.00
4312;DHT22;2169;49.086;9.284;2022-10-16T11:01:29;21.70;70.90
4312;DHT22;2169;49.086;9.284;2022-10-16T11:04:15;21.70;70.70
4312;DHT22;2169;49.086;9.284;2022-10-16T11:06:49;21.80;70.40
4312;DHT22;2169;49.086;9.284;2022-10-16T11:09:19;21.80;70.20
4312;DHT22;2169;49.086;9.284;2022-10-16T11:11:51;21.90;70.00
4312;DHT22;2169;49.086;9.284;2022-10-16T11:14:23;21.90;69.70
4312;DHT22;2169;49.086;9.284;2022-10-16T11:16:56;22.00;69.60
4312;DHT22;2169;49.086;9.284;2022-10-16T11:19:31;22.00;69.50
4312;DHT22;2169;49.086;9.284;2022-10-16T11:22:04;22.10;69.30
4312;DHT22;2169;49.086;9.284;2022-10-16T11:24:39;22.10;69.10
4312;DHT22;2169;49.086;9.284;2022-10-16T11:27:14;22.20;68.90
4312;DHT22;2169;49.086;9.284;2022-10-16T11:29:46;22.20;68.40
4312;DHT22;2169;49.086;9.284;2022-10-16T11:32:22;22.20;68.20
4312;DHT22;2169;49.086;9.284;2022-10-16T11:34:53;22.30;67.90
4312;DHT22;2169;49.086;9.284;2022-10-16T11:37:27;22.30;67.60
4312;DHT22;2169;49.086;9.284;2022-10-16T11:40:02;22.30;67.30
4312;DHT22;2169;49.086;9.284;2022-10-16T11:42:37;22.40;67.10
4312;DHT22;2169;49.086;9.284;2022-10-16T11:45:15;22.40;66.80
4312;DHT22;2169;49.086;9.284;2022-10-16T11:47:53;22.40;66.60
4312;DHT22;2169;49.086;9.284;2022-10-16T11:50:28;22.40;66.50
4312;DHT22;2169;49.086;9.284;2022-10-16T11:53:03;22.50;66.30
4312;DHT22;2169;49.086;9.284;2022-10-16T11:55:34;22.40;65.80
4312;DHT22;2169;49.086;9.284;2022-10-16T11:58:13;22.50;65.80
4312;DHT22;2169;49.086;9.284;2022-10-16T12:00:46;22.50;65.80
4312;DHT22;2169;49.086;9.284;2022-10-16T12:03:19;22.50;65.90
4312;DHT22;2169;49.086;9.284;2022-10-16T12:06:02;22.60;66.10
4312;DHT22;2169;49.086;9.284;2022-10-16T12:08:34;22.60;65.90
4312;DHT22;2169;49.086;9.284;2022-10-16T12:11:19;22.70;65.90
4312;DHT22;2169;49.086;9.284;2022-10-16T12:13:49;22.70;65.70
4312;DHT22;2169;49.086;9.284;2022-10-16T12:16:24;22.70;65.60
4312;DHT22;2169;49.086;9.284;2022-10-16T12:19:11;22.80;65.70
4312;DHT22;2169;49.086;9.284;2022-10-16T12:21:43;22.90;65.80
4312;DHT22;2169;49.086;9.284;2022-10-16T12:24:23;22.90;65.70
4312;DHT22;2169;49.086;9.284;2022-10-16T12:26:53;23.00;65.40
4312;DHT22;2169;49.086;9.284;2022-10-16T12:29:32;23.00;65.20
4312;DHT22;2169;49.086;9.284;2022-10-16T12:32:03;23.10;65.00
4312;DHT22;2169;49.086;9.284;2022-10-16T12:34:38;23.20;64.90
4312;DHT22;2169;49.086;9.284;2022-10-16T12:37:14;23.20;64.50
4312;DHT22;2169;49.086;9.284;2022-10-16T12:39:42;23.30;64.50
4312;DHT22;2169;49.086;9.284;2022-10-16T12:42:35;23.30;64.90
4312;DHT22;2169;49.086;9.284;2022-10-16T12:45:24;23.40;64.20
4312;DHT22;2169;49.086;9.284;2022-10-16T12:48:04;23.40;64.10
4312;DHT22;2169;49.086;9.284;2022-10-16T12:50:45;23.40;64.10
4312;DHT22;2169;49.086;9.284;2022-10-16T12:53:19;23.40;63.80
4312;DHT22;2169;49.086;9.284;2022-10-16T12:55:59;23.50;63.50
4312;DHT22;2169;49.086;9.284;2022-10-16T13:01:46;23.60;63.40
4312;DHT22;2169;49.086;9.284;2022-10-16T13:04:31;23.60;63.40
4312;DHT22;2169;49.086;9.284;2022-10-16T13:07:28;23.60;63.30
4312;DHT22;2169;49.086;9.284;2022-10-16T13:10:09;23.60;63.20
4312;DHT22;2169;49.086;9.284;2022-10-16T13:15:53;23.70;62.90
4312;DHT22;2169;49.086;9.284;2022-10-16T13:18:29;23.70;62.80
4312;DHT22;2169;49.086;9.284;2022-10-16T13:21:10;23.70;62.50
4312;DHT22;2169;49.086;9.284;2022-10-16T13:23:48;23.70;62.50
4312;DHT22;2169;49.086;9.284;2022-10-16T13:26:26;23.70;62.50
4312;DHT22;2169;49.086;9.284;2022-10-16T13:28:59;23.70;62.40
4312;DHT22;2169;49.086;9.284;2022-10-16T13:31:28;23.70;62.30
4312;DHT22;2169;49.086;9.284;2022-10-16T13:33:59;23.70;62.30
4312;DHT22;2169;49.086;9.284;2022-10-16T13:36:29;23.80;62.30
4312;DHT22;2169;49.086;9.284;2022-10-16T13:39:01;23.80;62.10
4312;DHT22;2169;49.086;9.284;2022-10-16T13:41:33;23.90;62.10
4312;DHT22;2169;49.086;9.284;2022-10-16T13:44:00;23.90;62.00
4312;DHT22;2169;49.086;9.284;2022-10-16T13:46:29;23.80;61.70
4312;DHT22;2169;49.086;9.284;2022-10-16T13:49:03;23.80;61.80
4312;DHT22;2169;49.086;9.284;2022-10-16T13:51:33;23.90;61.90
4312;DHT22;2169;49.086;9.284;2022-10-16T13:54:07;23.90;62.30
4312;DHT22;2169;49.086;9.284;2022-10-16T13:56:36;23.90;62.50
4312;DHT22;2169;49.086;9.284;2022-10-16T13:59:26;23.90;62.70
4312;DHT22;2169;49.086;9.284;2022-10-16T14:01:57;23.90;62.90
4312;DHT22;2169;49.086;9.284;2022-10-16T14:04:42;23.90;63.10
4312;DHT22;2169;49.086;9.284;2022-10-16T14:07:16;23.90;63.40
4312;DHT22;2169;49.086;9.284;2022-10-16T14:09:50;23.90;63.70
4312;DHT22;2169;49.086;9.284;2022-10-16T14:12:18;23.90;63.70
4312;DHT22;2169;49.086;9.284;2022-10-16T14:14:48;23.90;63.90
4312;DHT22;2169;49.086;9.284;2022-10-16T14:17:21;23.90;64.00
4312;DHT22;2169;49.086;9.284;2022-10-16T14:20:24;23.90;63.90
4312;DHT22;2169;49.086;9.284;2022-10-16T14:23:19;23.90;63.70
4312;DHT22;2169;49.086;9.284;2022-10-16T14:25:48;23.90;63.80
4312;DHT22;2169;49.086;9.284;2022-10-16T14:28:36;23.80;63.90
4312;DHT22;2169;49.086;9.284;2022-10-16T14:31:24;23.80;63.70
4312;DHT22;2169;49.086;9.284;2022-10-16T14:34:38;23.80;63.60
4312;DHT22;2169;49.086;9.284;2022-10-16T14:37:13;23.70;63.70
4312;DHT22;2169;49.086;9.284;2022-10-16T14:39:42;23.70;63.80
4312;DHT22;2169;49.086;9.284;2022-10-16T14:42:16;23.70;64.00
4312;DHT22;2169;49.086;9.284;2022-10-16T14:44:45;23.70;64.20
4312;DHT22;2169;49.086;9.284;2022-10-16T14:47:14;23.70;64.60
4312;DHT22;2169;49.086;9.284;2022-10-16T14:49:45;23.70;64.80
4312;DHT22;2169;49.086;9.284;2022-10-16T14:52:14;23.70;64.90
4312;DHT22;2169;49.086;9.284;2022-10-16T14:54:48;23.70;65.00
4312;DHT22;2169;49.086;9.284;2022-10-16T14:57:23;23.70;65.10
4312;DHT22;2169;49.086;9.284;2022-10-16T14:59:53;23.70;65.20
4312;DHT22;2169;49.086;9.284;2022-10-16T15:02:27;23.60;65.00
4312;DHT22;2169;49.086;9.284;2022-10-16T15:04:56;23.60;65.00
4312;DHT22;2169;49.086;9.284;2022-10-16T15:07:25;23.70;65.30
4312;DHT22;2169;49.086;9.284;2022-10-16T15:09:54;23.60;65.40
4312;DHT22;2169;49.086;9.284;2022-10-16T15:12:25;23.60;65.60
4312;DHT22;2169;49.086;9.284;2022-10-16T15:14:52;23.60;65.90
4312;DHT22;2169;49.086;9.284;2022-10-16T15:17:22;23.60;66.10
4312;DHT22;2169;49.086;9.284;2022-10-16T15:19:49;23.50;66.20
4312;DHT22;2169;49.086;9.284;2022-10-16T15:22:18;23.50;66.40
4312;DHT22;2169;49.086;9.284;2022-10-16T15:24:52;23.50;66.50
4312;DHT22;2169;49.086;9.284;2022-10-16T15:27:22;23.40;66.50
4312;DHT22;2169;49.086;9.284;2022-10-16T15:30:07;23.40;66.60
4312;DHT22;2169;49.086;9.284;2022-10-16T15:32:58;23.40;66.60
4312;DHT22;2169;49.086;9.284;2022-10-16T15:35:50;23.40;66.50
4312;DHT22;2169;49.086;9.284;2022-10-16T15:38:19;23.30;66.40
4312;DHT22;2169;49.086;9.284;2022-10-16T15:40:53;23.30;66.60
4312;DHT22;2169;49.086;9.284;2022-10-16T15:43:27;23.30;66.80
4312;DHT22;2169;49.086;9.284;2022-10-16T15:46:00;23.20;66.80
4312;DHT22;2169;49.086;9.284;2022-10-16T15:48:28;23.20;67.00
4312;DHT22;2169;49.086;9.284;2022-10-16T15:50:55;23.10;67.70
4312;DHT22;2169;49.086;9.284;2022-10-16T15:53:22;23.10;67.20
4312;DHT22;2169;49.086;9.284;2022-10-16T15:55:49;23.10;67.20
4312;DHT22;2169;49.086;9.284;2022-10-16T15:58:17;23.10;67.10
4312;DHT22;2169;49.086;9.284;2022-10-16T16:00:44;23.10;67.20
4312;DHT22;2169;49.086;9.284;2022-10-16T16:03:11;23.00;67.20
4312;DHT22;2169;49.086;9.284;2022-10-16T16:05:38;23.00;67.40
4312;DHT22;2169;49.086;9.284;2022-10-16T16:08:12;22.90;67.20
4312;DHT22;2169;49.086;9.284;2022-10-16T16:10:58;22.90;67.20
4312;DHT22;2169;49.086;9.284;2022-10-16T16:13:26;22.90;67.40
4312;DHT22;2169;49.086;9.284;2022-10-16T16:15:55;22.80;67.40
4312;DHT22;2169;49.086;9.284;2022-10-16T16:18:22;22.70;67.50
4312;DHT22;2169;49.086;9.284;2022-10-16T16:20:49;22.70;67.60
4312;DHT22;2169;49.086;9.284;2022-10-16T16:23:16;22.60;67.70
4312;DHT22;2169;49.086;9.284;2022-10-16T16:25:44;22.60;67.70
4312;DHT22;2169;49.086;9.284;2022-10-16T16:28:11;22.50;67.70
4312;DHT22;2169;49.086;9.284;2022-10-16T16:30:41;22.40;67.60
4312;DHT22;2169;49.086;9.284;2022-10-16T16:33:29;22.30;67.60
4312;DHT22;2169;49.086;9.284;2022-10-16T16:36:23;22.30;67.50
4312;DHT22;2169;49.086;9.284;2022-10-16T16:38:50;22.30;67.60
4312;DHT22;2169;49.086;9.284;2022-10-16T16:41:19;22.20;67.60
4312;DHT22;2169;49.086;9.284;2022-10-16T16:43:47;22.10;67.60